Main page
METAR-TAF:

METAR-TAF

Airports :

Shaikh Zayed International Airport

Rahim Yar Khan, Pakistan

latitude: 28-23-02N, longitude: 70-16-47E, elevation: 83 m

METAR: missing

Time: 05:34 (00:34 UTC)

Forecast

The report was made 2 hours and 49 minutes ago, at 21:45 UTC
Forecast valid from 24 at 00 UTC to 24 at 18 UTC
Wind 10 kt from the Southwest
Visibility: 4000 m
Few clouds at a height of 12000 ft
haze
Probability 30% :
Temporary
from 24 at 00 UTC to 24 at 04 UTC
Wind 5 kt from the Northeast
Visibility: 2500 m
smoke

TAF: OPRK 232145Z 2400/2418 23010KT 4000 HZ FEW120 TN25/2401Z TX44/2410Z PROB30 TEMPO 2400/2404 05005KT 2500 FU NSC

Weather observations and forecasts of more than 4000 airports (METAR and TAF reports).

The available stations are represented by yellow and red dots on the map.

Hover mouse over dot to see the name of the station.

Then click to see weather observations and forecasts.

To change the map : click on the green buttons with a black cross to zoom in, on the green button with a dash to zoom out, or on the green arrows for adjacent maps.


METAR-TAF: